sensor_id;sensor_type;location;lat;lon;timestamp;P1;durP1;ratioP1;P2;durP2;ratioP2
16689;SDS011;8458;52.220;9.884;2024-03-23T00:56:21;3.90;;;1.97;;
16689;SDS011;8458;52.220;9.884;2024-03-23T00:58:49;7.00;;;2.23;;
16689;SDS011;8458;52.220;9.884;2024-03-23T01:01:15;5.97;;;2.90;;
16689;SDS011;8458;52.220;9.884;2024-03-23T01:03:41;5.20;;;2.83;;
16689;SDS011;8458;52.220;9.884;2024-03-23T01:06:07;5.20;;;2.67;;
16689;SDS011;8458;52.220;9.884;2024-03-23T01:08:34;6.37;;;2.30;;
16689;SDS011;8458;52.220;9.884;2024-03-23T01:11:00;3.00;;;2.07;;
16689;SDS011;8458;52.220;9.884;2024-03-23T01:13:29;3.80;;;2.40;;
16689;SDS011;8458;52.220;9.884;2024-03-23T01:15:55;4.07;;;2.70;;
16689;SDS011;8458;52.220;9.884;2024-03-23T01:18:23;8.47;;;2.97;;
16689;SDS011;8458;52.220;9.884;2024-03-23T01:20:49;5.37;;;2.87;;
16689;SDS011;8458;52.220;9.884;2024-03-23T01:23:16;4.20;;;3.17;;
16689;SDS011;8458;52.220;9.884;2024-03-23T01:25:41;5.40;;;2.87;;
16689;SDS011;8458;52.220;9.884;2024-03-23T01:28:08;5.33;;;3.47;;
16689;SDS011;8458;52.220;9.884;2024-03-23T01:30:35;5.27;;;3.20;;
16689;SDS011;8458;52.220;9.884;2024-03-23T01:33:02;4.00;;;2.87;;
16689;SDS011;8458;52.220;9.884;2024-03-23T01:35:28;5.23;;;2.93;;
16689;SDS011;8458;52.220;9.884;2024-03-23T01:37:55;4.97;;;3.10;;
16689;SDS011;8458;52.220;9.884;2024-03-23T01:40:20;5.00;;;3.13;;
16689;SDS011;8458;52.220;9.884;2024-03-23T01:42:55;5.23;;;2.87;;
16689;SDS011;8458;52.220;9.884;2024-03-23T01:45:21;6.13;;;3.40;;
16689;SDS011;8458;52.220;9.884;2024-03-23T01:47:49;4.80;;;3.27;;
16689;SDS011;8458;52.220;9.884;2024-03-23T01:50:15;3.70;;;3.00;;
16689;SDS011;8458;52.220;9.884;2024-03-23T01:52:42;6.30;;;2.93;;
16689;SDS011;8458;52.220;9.884;2024-03-23T01:55:09;4.27;;;2.90;;
16689;SDS011;8458;52.220;9.884;2024-03-23T01:57:36;3.83;;;2.93;;
16689;SDS011;8458;52.220;9.884;2024-03-23T02:00:02;5.50;;;3.23;;
16689;SDS011;8458;52.220;9.884;2024-03-23T02:02:29;5.77;;;2.93;;
16689;SDS011;8458;52.220;9.884;2024-03-23T02:04:56;4.70;;;3.13;;
16689;SDS011;8458;52.220;9.884;2024-03-23T02:07:22;4.27;;;2.80;;
16689;SDS011;8458;52.220;9.884;2024-03-23T02:09:48;6.57;;;2.97;;
16689;SDS011;8458;52.220;9.884;2024-03-23T02:12:16;5.03;;;2.63;;
16689;SDS011;8458;52.220;9.884;2024-03-23T02:14:42;3.80;;;3.00;;
16689;SDS011;8458;52.220;9.884;2024-03-23T02:17:09;5.23;;;2.90;;
16689;SDS011;8458;52.220;9.884;2024-03-23T02:19:34;5.30;;;2.83;;
16689;SDS011;8458;52.220;9.884;2024-03-23T02:22:02;5.50;;;3.03;;
16689;SDS011;8458;52.220;9.884;2024-03-23T02:24:30;4.93;;;3.43;;
16689;SDS011;8458;52.220;9.884;2024-03-23T02:26:57;6.73;;;3.57;;
16689;SDS011;8458;52.220;9.884;2024-03-23T02:29:22;9.07;;;3.90;;
16689;SDS011;8458;52.220;9.884;2024-03-23T02:31:49;4.63;;;3.23;;
16689;SDS011;8458;52.220;9.884;2024-03-23T02:34:14;5.23;;;3.27;;
16689;SDS011;8458;52.220;9.884;2024-03-23T02:36:41;3.73;;;2.70;;
16689;SDS011;8458;52.220;9.884;2024-03-23T02:39:06;4.60;;;2.70;;
16689;SDS011;8458;52.220;9.884;2024-03-23T02:41:34;4.37;;;2.33;;
16689;SDS011;8458;52.220;9.884;2024-03-23T02:44:00;5.57;;;2.70;;
16689;SDS011;8458;52.220;9.884;2024-03-23T02:46:27;4.47;;;2.37;;
16689;SDS011;8458;52.220;9.884;2024-03-23T02:48:52;4.03;;;2.10;;
16689;SDS011;8458;52.220;9.884;2024-03-23T02:51:19;5.23;;;2.37;;
16689;SDS011;8458;52.220;9.884;2024-03-23T02:53:45;3.90;;;2.30;;
16689;SDS011;8458;52.220;9.884;2024-03-23T02:56:11;4.70;;;2.43;;
16689;SDS011;8458;52.220;9.884;2024-03-23T02:58:42;4.27;;;2.37;;
16689;SDS011;8458;52.220;9.884;2024-03-23T03:01:08;3.73;;;2.23;;
16689;SDS011;8458;52.220;9.884;2024-03-23T03:03:34;4.50;;;2.07;;
16689;SDS011;8458;52.220;9.884;2024-03-23T03:06:01;4.23;;;2.40;;
16689;SDS011;8458;52.220;9.884;2024-03-23T03:08:26;2.93;;;2.03;;
16689;SDS011;8458;52.220;9.884;2024-03-23T03:10:53;4.10;;;2.50;;
16689;SDS011;8458;52.220;9.884;2024-03-23T03:13:19;3.87;;;2.00;;
16689;SDS011;8458;52.220;9.884;2024-03-23T03:15:46;5.27;;;2.70;;
16689;SDS011;8458;52.220;9.884;2024-03-23T03:18:13;3.43;;;2.23;;
16689;SDS011;8458;52.220;9.884;2024-03-23T03:20:38;4.93;;;2.60;;
16689;SDS011;8458;52.220;9.884;2024-03-23T03:23:05;4.47;;;2.60;;
16689;SDS011;8458;52.220;9.884;2024-03-23T03:25:31;3.70;;;2.80;;
16689;SDS011;8458;52.220;9.884;2024-03-23T03:27:57;3.50;;;2.80;;
16689;SDS011;8458;52.220;9.884;2024-03-23T03:30:23;4.37;;;3.20;;
16689;SDS011;8458;52.220;9.884;2024-03-23T03:32:53;4.47;;;3.20;;
16689;SDS011;8458;52.220;9.884;2024-03-23T03:35:19;5.00;;;3.20;;
16689;SDS011;8458;52.220;9.884;2024-03-23T03:37:45;5.67;;;3.63;;
16689;SDS011;8458;52.220;9.884;2024-03-23T03:40:11;4.87;;;3.80;;
16689;SDS011;8458;52.220;9.884;2024-03-23T03:42:40;5.67;;;4.30;;
16689;SDS011;8458;52.220;9.884;2024-03-23T03:45:06;5.67;;;4.23;;
16689;SDS011;8458;52.220;9.884;2024-03-23T03:47:33;5.43;;;4.43;;
16689;SDS011;8458;52.220;9.884;2024-03-23T03:50:00;5.93;;;4.03;;
16689;SDS011;8458;52.220;9.884;2024-03-23T03:52:26;5.20;;;4.30;;
16689;SDS011;8458;52.220;9.884;2024-03-23T03:54:55;5.73;;;4.83;;
16689;SDS011;8458;52.220;9.884;2024-03-23T03:57:28;6.10;;;4.57;;
16689;SDS011;8458;52.220;9.884;2024-03-23T03:59:54;6.43;;;4.57;;
16689;SDS011;8458;52.220;9.884;2024-03-23T04:02:20;5.77;;;4.07;;
16689;SDS011;8458;52.220;9.884;2024-03-23T04:04:46;5.53;;;3.63;;
16689;SDS011;8458;52.220;9.884;2024-03-23T04:07:14;6.50;;;3.97;;
16689;SDS011;8458;52.220;9.884;2024-03-23T04:09:40;6.90;;;3.90;;
16689;SDS011;8458;52.220;9.884;2024-03-23T04:12:06;6.77;;;3.83;;
16689;SDS011;8458;52.220;9.884;2024-03-23T04:14:32;7.20;;;3.60;;
16689;SDS011;8458;52.220;9.884;2024-03-23T04:16:59;5.27;;;3.17;;
16689;SDS011;8458;52.220;9.884;2024-03-23T04:19:24;4.53;;;3.03;;
16689;SDS011;8458;52.220;9.884;2024-03-23T04:21:51;3.80;;;3.10;;
16689;SDS011;8458;52.220;9.884;2024-03-23T04:24:18;4.23;;;3.00;;
16689;SDS011;8458;52.220;9.884;2024-03-23T04:26:46;5.60;;;3.20;;
16689;SDS011;8458;52.220;9.884;2024-03-23T04:29:12;5.80;;;3.07;;
16689;SDS011;8458;52.220;9.884;2024-03-23T04:31:38;4.40;;;3.00;;
16689;SDS011;8458;52.220;9.884;2024-03-23T04:34:04;4.87;;;2.80;;
16689;SDS011;8458;52.220;9.884;2024-03-23T04:36:31;5.33;;;2.97;;
16689;SDS011;8458;52.220;9.884;2024-03-23T04:38:58;5.50;;;2.70;;
16689;SDS011;8458;52.220;9.884;2024-03-23T04:41:26;5.47;;;2.20;;
16689;SDS011;8458;52.220;9.884;2024-03-23T04:43:53;3.43;;;2.30;;
16689;SDS011;8458;52.220;9.884;2024-03-23T04:46:20;5.90;;;2.40;;
16689;SDS011;8458;52.220;9.884;2024-03-23T04:48:46;3.33;;;2.23;;
16689;SDS011;8458;52.220;9.884;2024-03-23T04:51:19;5.03;;;2.50;;
16689;SDS011;8458;52.220;9.884;2024-03-23T04:53:47;5.67;;;2.83;;
16689;SDS011;8458;52.220;9.884;2024-03-23T04:56:14;2.93;;;1.93;;
16689;SDS011;8458;52.220;9.884;2024-03-23T04:58:41;3.43;;;1.90;;
16689;SDS011;8458;52.220;9.884;2024-03-23T05:01:07;4.73;;;2.17;;
16689;SDS011;8458;52.220;9.884;2024-03-23T05:03:33;4.07;;;2.30;;
16689;SDS011;8458;52.220;9.884;2024-03-23T05:06:00;5.00;;;2.30;;
16689;SDS011;8458;52.220;9.884;2024-03-23T05:08:26;4.03;;;2.30;;
16689;SDS011;8458;52.220;9.884;2024-03-23T05:10:52;4.63;;;2.50;;
16689;SDS011;8458;52.220;9.884;2024-03-23T05:13:18;4.30;;;2.43;;
16689;SDS011;8458;52.220;9.884;2024-03-23T05:15:50;5.50;;;3.10;;
16689;SDS011;8458;52.220;9.884;2024-03-23T05:18:17;4.37;;;2.47;;
16689;SDS011;8458;52.220;9.884;2024-03-23T05:20:43;4.77;;;2.70;;
16689;SDS011;8458;52.220;9.884;2024-03-23T05:23:09;3.27;;;2.20;;
16689;SDS011;8458;52.220;9.884;2024-03-23T05:25:35;3.17;;;2.40;;
16689;SDS011;8458;52.220;9.884;2024-03-23T05:28:01;4.47;;;2.30;;
16689;SDS011;8458;52.220;9.884;2024-03-23T05:30:28;3.43;;;2.37;;
16689;SDS011;8458;52.220;9.884;2024-03-23T05:32:55;6.97;;;3.27;;
16689;SDS011;8458;52.220;9.884;2024-03-23T05:35:22;5.47;;;2.53;;
16689;SDS011;8458;52.220;9.884;2024-03-23T05:37:47;4.50;;;2.60;;
16689;SDS011;8458;52.220;9.884;2024-03-23T05:40:14;5.10;;;2.63;;
16689;SDS011;8458;52.220;9.884;2024-03-23T05:42:40;7.40;;;2.80;;
16689;SDS011;8458;52.220;9.884;2024-03-23T05:45:07;4.80;;;2.63;;
16689;SDS011;8458;52.220;9.884;2024-03-23T05:47:33;5.50;;;2.80;;
16689;SDS011;8458;52.220;9.884;2024-03-23T05:50:01;6.87;;;3.00;;
16689;SDS011;8458;52.220;9.884;2024-03-23T05:52:27;6.00;;;3.03;;
16689;SDS011;8458;52.220;9.884;2024-03-23T05:54:53;4.60;;;3.00;;
16689;SDS011;8458;52.220;9.884;2024-03-23T05:57:19;5.47;;;2.30;;
16689;SDS011;8458;52.220;9.884;2024-03-23T05:59:46;8.70;;;2.40;;
16689;SDS011;8458;52.220;9.884;2024-03-23T06:02:11;5.83;;;2.37;;
16689;SDS011;8458;52.220;9.884;2024-03-23T06:04:38;3.63;;;1.57;;
16689;SDS011;8458;52.220;9.884;2024-03-23T06:07:06;4.23;;;1.97;;
16689;SDS011;8458;52.220;9.884;2024-03-23T06:09:32;5.03;;;1.70;;
16689;SDS011;8458;52.220;9.884;2024-03-23T06:11:58;5.47;;;1.80;;
16689;SDS011;8458;52.220;9.884;2024-03-23T06:14:24;4.83;;;2.00;;
16689;SDS011;8458;52.220;9.884;2024-03-23T06:16:51;4.80;;;2.30;;
16689;SDS011;8458;52.220;9.884;2024-03-23T06:19:17;4.87;;;2.30;;
16689;SDS011;8458;52.220;9.884;2024-03-23T06:21:43;5.27;;;2.10;;
16689;SDS011;8458;52.220;9.884;2024-03-23T06:24:10;5.00;;;1.90;;
16689;SDS011;8458;52.220;9.884;2024-03-23T06:26:37;2.13;;;1.33;;
16689;SDS011;8458;52.220;9.884;2024-03-23T06:29:02;3.80;;;1.50;;
16689;SDS011;8458;52.220;9.884;2024-03-23T06:31:30;4.20;;;1.67;;
16689;SDS011;8458;52.220;9.884;2024-03-23T06:33:55;4.70;;;1.57;;
16689;SDS011;8458;52.220;9.884;2024-03-23T06:36:22;3.90;;;1.47;;
16689;SDS011;8458;52.220;9.884;2024-03-23T06:38:47;4.90;;;1.70;;
16689;SDS011;8458;52.220;9.884;2024-03-23T06:41:15;6.47;;;1.73;;
16689;SDS011;8458;52.220;9.884;2024-03-23T06:43:41;4.83;;;1.70;;
16689;SDS011;8458;52.220;9.884;2024-03-23T06:46:08;3.90;;;1.50;;
16689;SDS011;8458;52.220;9.884;2024-03-23T06:48:33;4.53;;;1.80;;
16689;SDS011;8458;52.220;9.884;2024-03-23T06:51:00;4.43;;;1.67;;
16689;SDS011;8458;52.220;9.884;2024-03-23T06:53:25;3.73;;;1.93;;
16689;SDS011;8458;52.220;9.884;2024-03-23T06:55:52;4.83;;;1.70;;
16689;SDS011;8458;52.220;9.884;2024-03-23T06:58:20;5.20;;;1.90;;
16689;SDS011;8458;52.220;9.884;2024-03-23T07:00:47;5.30;;;1.80;;
16689;SDS011;8458;52.220;9.884;2024-03-23T07:03:13;6.23;;;1.50;;
16689;SDS011;8458;52.220;9.884;2024-03-23T07:05:40;3.90;;;1.63;;
16689;SDS011;8458;52.220;9.884;2024-03-23T07:08:07;4.33;;;1.33;;
16689;SDS011;8458;52.220;9.884;2024-03-23T07:10:34;5.20;;;1.70;;
16689;SDS011;8458;52.220;9.884;2024-03-23T07:13:00;5.07;;;1.50;;
16689;SDS011;8458;52.220;9.884;2024-03-23T07:15:28;4.00;;;1.90;;
16689;SDS011;8458;52.220;9.884;2024-03-23T07:17:54;4.90;;;1.67;;
16689;SDS011;8458;52.220;9.884;2024-03-23T07:20:20;5.97;;;2.03;;
16689;SDS011;8458;52.220;9.884;2024-03-23T07:22:46;4.20;;;1.87;;
16689;SDS011;8458;52.220;9.884;2024-03-23T07:25:14;5.23;;;1.70;;
16689;SDS011;8458;52.220;9.884;2024-03-23T07:27:39;4.10;;;1.73;;
16689;SDS011;8458;52.220;9.884;2024-03-23T07:30:06;5.33;;;1.80;;
16689;SDS011;8458;52.220;9.884;2024-03-23T07:32:35;5.27;;;1.90;;
16689;SDS011;8458;52.220;9.884;2024-03-23T07:35:02;5.13;;;1.47;;
16689;SDS011;8458;52.220;9.884;2024-03-23T07:37:27;5.03;;;1.80;;
16689;SDS011;8458;52.220;9.884;2024-03-23T07:39:54;4.37;;;1.70;;
16689;SDS011;8458;52.220;9.884;2024-03-23T07:42:20;4.90;;;2.00;;
16689;SDS011;8458;52.220;9.884;2024-03-23T07:44:46;3.87;;;2.10;;
16689;SDS011;8458;52.220;9.884;2024-03-23T07:47:12;5.93;;;1.93;;
16689;SDS011;8458;52.220;9.884;2024-03-23T07:49:40;7.53;;;2.40;;
16689;SDS011;8458;52.220;9.884;2024-03-23T07:52:06;4.77;;;2.20;;
16689;SDS011;8458;52.220;9.884;2024-03-23T07:54:33;5.30;;;2.10;;
16689;SDS011;8458;52.220;9.884;2024-03-23T07:56:58;6.03;;;2.10;;
16689;SDS011;8458;52.220;9.884;2024-03-23T07:59:25;4.60;;;2.20;;
16689;SDS011;8458;52.220;9.884;2024-03-23T08:01:51;4.90;;;2.43;;
16689;SDS011;8458;52.220;9.884;2024-03-23T08:04:17;4.87;;;2.17;;
16689;SDS011;8458;52.220;9.884;2024-03-23T08:06:45;4.97;;;2.10;;
16689;SDS011;8458;52.220;9.884;2024-03-23T08:09:11;4.13;;;2.53;;
16689;SDS011;8458;52.220;9.884;2024-03-23T08:11:37;4.33;;;2.07;;
16689;SDS011;8458;52.220;9.884;2024-03-23T08:14:04;5.00;;;2.20;;
16689;SDS011;8458;52.220;9.884;2024-03-23T08:16:30;6.23;;;2.67;;
16689;SDS011;8458;52.220;9.884;2024-03-23T08:18:59;4.63;;;2.80;;
16689;SDS011;8458;52.220;9.884;2024-03-23T08:21:24;6.60;;;3.47;;
16689;SDS011;8458;52.220;9.884;2024-03-23T08:23:52;5.93;;;3.57;;
16689;SDS011;8458;52.220;9.884;2024-03-23T08:26:18;6.93;;;4.80;;
16689;SDS011;8458;52.220;9.884;2024-03-23T08:28:45;10.10;;;5.33;;
16689;SDS011;8458;52.220;9.884;2024-03-23T08:31:11;9.93;;;5.67;;
16689;SDS011;8458;52.220;9.884;2024-03-23T08:33:39;10.17;;;5.67;;
16689;SDS011;8458;52.220;9.884;2024-03-23T08:36:06;7.27;;;5.50;;
16689;SDS011;8458;52.220;9.884;2024-03-23T08:38:33;8.57;;;5.77;;
16689;SDS011;8458;52.220;9.884;2024-03-23T08:41:01;15.20;;;6.73;;
16689;SDS011;8458;52.220;9.884;2024-03-23T08:43:29;9.57;;;7.47;;
16689;SDS011;8458;52.220;9.884;2024-03-23T08:46:02;12.03;;;7.87;;
16689;SDS011;8458;52.220;9.884;2024-03-23T08:48:29;15.73;;;8.87;;
16689;SDS011;8458;52.220;9.884;2024-03-23T08:50:58;11.13;;;7.27;;
16689;SDS011;8458;52.220;9.884;2024-03-23T08:53:27;11.20;;;6.30;;
16689;SDS011;8458;52.220;9.884;2024-03-23T08:55:53;11.03;;;7.50;;
16689;SDS011;8458;52.220;9.884;2024-03-23T08:58:21;11.33;;;6.90;;
16689;SDS011;8458;52.220;9.884;2024-03-23T09:00:49;9.33;;;6.50;;
16689;SDS011;8458;52.220;9.884;2024-03-23T09:03:16;10.30;;;5.83;;
16689;SDS011;8458;52.220;9.884;2024-03-23T09:05:41;8.80;;;4.67;;
16689;SDS011;8458;52.220;9.884;2024-03-23T09:08:08;8.80;;;4.37;;
16689;SDS011;8458;52.220;9.884;2024-03-23T09:10:35;9.67;;;4.67;;
16689;SDS011;8458;52.220;9.884;2024-03-23T09:13:03;7.17;;;4.67;;
16689;SDS011;8458;52.220;9.884;2024-03-23T09:15:30;8.30;;;4.00;;
16689;SDS011;8458;52.220;9.884;2024-03-23T09:17:58;6.80;;;4.13;;
16689;SDS011;8458;52.220;9.884;2024-03-23T09:20:24;8.37;;;3.90;;
16689;SDS011;8458;52.220;9.884;2024-03-23T09:22:51;5.93;;;3.83;;
16689;SDS011;8458;52.220;9.884;2024-03-23T09:25:17;7.93;;;4.00;;
16689;SDS011;8458;52.220;9.884;2024-03-23T09:27:44;8.53;;;3.87;;
16689;SDS011;8458;52.220;9.884;2024-03-23T09:30:11;5.60;;;3.40;;
16689;SDS011;8458;52.220;9.884;2024-03-23T09:32:40;9.07;;;3.90;;
16689;SDS011;8458;52.220;9.884;2024-03-23T09:35:07;8.47;;;3.70;;
16689;SDS011;8458;52.220;9.884;2024-03-23T09:37:34;7.93;;;3.73;;
16689;SDS011;8458;52.220;9.884;2024-03-23T09:39:59;7.20;;;4.20;;
16689;SDS011;8458;52.220;9.884;2024-03-23T09:42:26;10.67;;;3.80;;
16689;SDS011;8458;52.220;9.884;2024-03-23T09:44:52;8.37;;;3.57;;
16689;SDS011;8458;52.220;9.884;2024-03-23T09:47:19;7.67;;;4.33;;
16689;SDS011;8458;52.220;9.884;2024-03-23T09:49:46;6.67;;;3.20;;
16689;SDS011;8458;52.220;9.884;2024-03-23T09:52:12;9.17;;;3.37;;
16689;SDS011;8458;52.220;9.884;2024-03-23T09:54:38;7.20;;;3.33;;
16689;SDS011;8458;52.220;9.884;2024-03-23T09:57:05;6.67;;;3.10;;
16689;SDS011;8458;52.220;9.884;2024-03-23T09:59:31;8.00;;;3.30;;
16689;SDS011;8458;52.220;9.884;2024-03-23T10:01:59;8.27;;;3.60;;
16689;SDS011;8458;52.220;9.884;2024-03-23T10:07:12;5.67;;;2.53;;
16689;SDS011;8458;52.220;9.884;2024-03-23T10:09:38;5.67;;;2.70;;
16689;SDS011;8458;52.220;9.884;2024-03-23T10:12:09;6.13;;;2.43;;
16689;SDS011;8458;52.220;9.884;2024-03-23T10:14:35;7.27;;;2.90;;
16689;SDS011;8458;52.220;9.884;2024-03-23T10:17:11;6.07;;;2.90;;
16689;SDS011;8458;52.220;9.884;2024-03-23T10:19:39;8.67;;;2.83;;
16689;SDS011;8458;52.220;9.884;2024-03-23T10:22:07;5.93;;;2.77;;
16689;SDS011;8458;52.220;9.884;2024-03-23T10:24:33;4.33;;;2.30;;
16689;SDS011;8458;52.220;9.884;2024-03-23T10:27:00;6.33;;;2.80;;
16689;SDS011;8458;52.220;9.884;2024-03-23T10:29:26;5.13;;;2.50;;
16689;SDS011;8458;52.220;9.884;2024-03-23T10:31:53;5.70;;;2.53;;
16689;SDS011;8458;52.220;9.884;2024-03-23T10:34:24;5.77;;;2.57;;
16689;SDS011;8458;52.220;9.884;2024-03-23T10:36:52;4.27;;;1.97;;
16689;SDS011;8458;52.220;9.884;2024-03-23T10:39:18;4.10;;;2.30;;
16689;SDS011;8458;52.220;9.884;2024-03-23T10:41:48;4.10;;;1.80;;
16689;SDS011;8458;52.220;9.884;2024-03-23T10:44:16;4.67;;;2.03;;
16689;SDS011;8458;52.220;9.884;2024-03-23T10:46:44;3.03;;;1.77;;
16689;SDS011;8458;52.220;9.884;2024-03-23T10:49:10;5.27;;;2.27;;
16689;SDS011;8458;52.220;9.884;2024-03-23T10:51:37;4.17;;;1.80;;
16689;SDS011;8458;52.220;9.884;2024-03-23T10:54:03;4.77;;;1.80;;
16689;SDS011;8458;52.220;9.884;2024-03-23T10:56:32;2.47;;;1.37;;
16689;SDS011;8458;52.220;9.884;2024-03-23T10:59:02;2.20;;;1.37;;
16689;SDS011;8458;52.220;9.884;2024-03-23T11:01:30;1.50;;;1.00;;
16689;SDS011;8458;52.220;9.884;2024-03-23T11:03:56;2.13;;;1.00;;
16689;SDS011;8458;52.220;9.884;2024-03-23T11:06:35;2.47;;;1.10;;
16689;SDS011;8458;52.220;9.884;2024-03-23T11:09:02;1.53;;;1.00;;
16689;SDS011;8458;52.220;9.884;2024-03-23T11:11:28;2.83;;;1.13;;
16689;SDS011;8458;52.220;9.884;2024-03-23T11:13:57;2.00;;;1.10;;
16689;SDS011;8458;52.220;9.884;2024-03-23T11:16:27;2.27;;;1.40;;
16689;SDS011;8458;52.220;9.884;2024-03-23T11:18:55;3.30;;;1.63;;
16689;SDS011;8458;52.220;9.884;2024-03-23T11:21:57;2.93;;;1.73;;
16689;SDS011;8458;52.220;9.884;2024-03-23T11:24:23;4.17;;;2.07;;
16689;SDS011;8458;52.220;9.884;2024-03-23T11:26:49;4.23;;;2.30;;
16689;SDS011;8458;52.220;9.884;2024-03-23T11:29:15;4.20;;;2.33;;
16689;SDS011;8458;52.220;9.884;2024-03-23T11:31:46;4.43;;;1.80;;
16689;SDS011;8458;52.220;9.884;2024-03-23T11:34:12;5.47;;;2.73;;
16689;SDS011;8458;52.220;9.884;2024-03-23T11:36:39;2.93;;;1.63;;
16689;SDS011;8458;52.220;9.884;2024-03-23T11:39:12;3.20;;;1.40;;
16689;SDS011;8458;52.220;9.884;2024-03-23T11:41:47;2.23;;;1.40;;
16689;SDS011;8458;52.220;9.884;2024-03-23T11:44:16;2.70;;;1.53;;
16689;SDS011;8458;52.220;9.884;2024-03-23T11:46:44;4.17;;;1.63;;
16689;SDS011;8458;52.220;9.884;2024-03-23T11:49:19;3.63;;;1.50;;
16689;SDS011;8458;52.220;9.884;2024-03-23T11:51:49;2.50;;;1.60;;
16689;SDS011;8458;52.220;9.884;2024-03-23T11:54:19;3.00;;;1.50;;
16689;SDS011;8458;52.220;9.884;2024-03-23T11:56:56;3.30;;;1.60;;
16689;SDS011;8458;52.220;9.884;2024-03-23T11:59:32;3.73;;;1.47;;
16689;SDS011;8458;52.220;9.884;2024-03-23T12:01:59;3.00;;;1.73;;
16689;SDS011;8458;52.220;9.884;2024-03-23T12:04:25;3.33;;;2.10;;
16689;SDS011;8458;52.220;9.884;2024-03-23T12:09:41;4.03;;;2.10;;
16689;SDS011;8458;52.220;9.884;2024-03-23T12:12:08;4.73;;;2.40;;
16689;SDS011;8458;52.220;9.884;2024-03-23T12:14:35;2.50;;;1.90;;
16689;SDS011;8458;52.220;9.884;2024-03-23T12:17:10;4.10;;;2.10;;
16689;SDS011;8458;52.220;9.884;2024-03-23T12:19:36;5.10;;;2.03;;
16689;SDS011;8458;52.220;9.884;2024-03-23T12:22:03;4.83;;;2.03;;
16689;SDS011;8458;52.220;9.884;2024-03-23T12:24:29;2.50;;;1.67;;
16689;SDS011;8458;52.220;9.884;2024-03-23T12:27:00;2.87;;;1.30;;
16689;SDS011;8458;52.220;9.884;2024-03-23T12:29:28;1.80;;;1.03;;
16689;SDS011;8458;52.220;9.884;2024-03-23T12:31:55;2.23;;;1.37;;
16689;SDS011;8458;52.220;9.884;2024-03-23T12:34:21;3.30;;;1.53;;
16689;SDS011;8458;52.220;9.884;2024-03-23T12:36:47;2.43;;;1.80;;
16689;SDS011;8458;52.220;9.884;2024-03-23T12:39:13;2.37;;;1.50;;
16689;SDS011;8458;52.220;9.884;2024-03-23T12:41:40;2.53;;;1.50;;
16689;SDS011;8458;52.220;9.884;2024-03-23T12:44:06;2.43;;;1.60;;
16689;SDS011;8458;52.220;9.884;2024-03-23T12:46:36;3.40;;;1.80;;
16689;SDS011;8458;52.220;9.884;2024-03-23T12:49:02;2.43;;;1.80;;
16689;SDS011;8458;52.220;9.884;2024-03-23T12:51:28;4.03;;;2.27;;
16689;SDS011;8458;52.220;9.884;2024-03-23T12:53:54;2.83;;;2.00;;
16689;SDS011;8458;52.220;9.884;2024-03-23T12:56:21;2.07;;;1.60;;
16689;SDS011;8458;52.220;9.884;2024-03-23T12:58:46;3.03;;;1.40;;
16689;SDS011;8458;52.220;9.884;2024-03-23T13:01:17;2.30;;;1.20;;
16689;SDS011;8458;52.220;9.884;2024-03-23T13:03:45;1.63;;;0.97;;
16689;SDS011;8458;52.220;9.884;2024-03-23T13:06:12;2.10;;;0.60;;
16689;SDS011;8458;52.220;9.884;2024-03-23T13:08:38;1.00;;;0.70;;
16689;SDS011;8458;52.220;9.884;2024-03-23T13:11:05;1.20;;;0.70;;
16689;SDS011;8458;52.220;9.884;2024-03-23T13:13:33;1.37;;;0.80;;
16689;SDS011;8458;52.220;9.884;2024-03-23T13:16:00;1.03;;;0.47;;
16689;SDS011;8458;52.220;9.884;2024-03-23T13:18:27;1.70;;;0.60;;
16689;SDS011;8458;52.220;9.884;2024-03-23T13:20:54;0.77;;;0.50;;
16689;SDS011;8458;52.220;9.884;2024-03-23T13:23:19;1.90;;;0.70;;
16689;SDS011;8458;52.220;9.884;2024-03-23T13:25:49;0.80;;;0.63;;
16689;SDS011;8458;52.220;9.884;2024-03-23T13:28:15;1.00;;;0.50;;
16689;SDS011;8458;52.220;9.884;2024-03-23T13:30:49;1.13;;;0.70;;
16689;SDS011;8458;52.220;9.884;2024-03-23T13:33:15;0.80;;;0.60;;
16689;SDS011;8458;52.220;9.884;2024-03-23T13:35:49;1.17;;;0.50;;
16689;SDS011;8458;52.220;9.884;2024-03-23T13:38:15;1.20;;;0.80;;
16689;SDS011;8458;52.220;9.884;2024-03-23T13:40:49;2.10;;;0.90;;
16689;SDS011;8458;52.220;9.884;2024-03-23T13:43:18;1.73;;;1.00;;
16689;SDS011;8458;52.220;9.884;2024-03-23T13:45:45;2.37;;;0.80;;
16689;SDS011;8458;52.220;9.884;2024-03-23T13:48:11;0.80;;;0.70;;
16689;SDS011;8458;52.220;9.884;2024-03-23T13:50:37;1.53;;;0.90;;
16689;SDS011;8458;52.220;9.884;2024-03-23T13:53:05;1.83;;;1.00;;
16689;SDS011;8458;52.220;9.884;2024-03-23T13:55:33;2.17;;;1.13;;
16689;SDS011;8458;52.220;9.884;2024-03-23T13:57:58;3.00;;;1.27;;
16689;SDS011;8458;52.220;9.884;2024-03-23T14:00:25;1.73;;;1.30;;
16689;SDS011;8458;52.220;9.884;2024-03-23T14:02:51;2.07;;;1.10;;
16689;SDS011;8458;52.220;9.884;2024-03-23T14:05:17;1.67;;;0.80;;
16689;SDS011;8458;52.220;9.884;2024-03-23T14:07:43;2.10;;;0.90;;
16689;SDS011;8458;52.220;9.884;2024-03-23T14:10:11;2.27;;;0.80;;
16689;SDS011;8458;52.220;9.884;2024-03-23T14:12:36;1.90;;;1.10;;
16689;SDS011;8458;52.220;9.884;2024-03-23T14:15:05;1.27;;;1.03;;
16689;SDS011;8458;52.220;9.884;2024-03-23T14:17:31;2.03;;;0.80;;
16689;SDS011;8458;52.220;9.884;2024-03-23T14:19:57;2.83;;;1.23;;
16689;SDS011;8458;52.220;9.884;2024-03-23T14:22:25;1.30;;;0.93;;
16689;SDS011;8458;52.220;9.884;2024-03-23T14:24:53;1.97;;;1.27;;
16689;SDS011;8458;52.220;9.884;2024-03-23T14:27:20;1.53;;;1.20;;
16689;SDS011;8458;52.220;9.884;2024-03-23T14:29:47;2.47;;;1.27;;
16689;SDS011;8458;52.220;9.884;2024-03-23T14:32:13;1.93;;;1.10;;
16689;SDS011;8458;52.220;9.884;2024-03-23T14:34:40;1.80;;;1.00;;
16689;SDS011;8458;52.220;9.884;2024-03-23T14:37:05;2.20;;;0.60;;
16689;SDS011;8458;52.220;9.884;2024-03-23T14:39:32;1.03;;;0.70;;
16689;SDS011;8458;52.220;9.884;2024-03-23T14:41:59;0.43;;;0.40;;
16689;SDS011;8458;52.220;9.884;2024-03-23T14:44:27;0.70;;;0.50;;
16689;SDS011;8458;52.220;9.884;2024-03-23T14:46:53;0.73;;;0.40;;
16689;SDS011;8458;52.220;9.884;2024-03-23T14:49:20;1.30;;;0.40;;
16689;SDS011;8458;52.220;9.884;2024-03-23T14:51:46;0.77;;;0.50;;
16689;SDS011;8458;52.220;9.884;2024-03-23T14:54:12;0.40;;;0.40;;
16689;SDS011;8458;52.220;9.884;2024-03-23T14:56:38;0.40;;;0.33;;
16689;SDS011;8458;52.220;9.884;2024-03-23T14:59:05;0.47;;;0.30;;
16689;SDS011;8458;52.220;9.884;2024-03-23T15:01:33;0.93;;;0.30;;
16689;SDS011;8458;52.220;9.884;2024-03-23T15:04:00;0.47;;;0.20;;
16689;SDS011;8458;52.220;9.884;2024-03-23T15:06:25;0.17;;;0.17;;
16689;SDS011;8458;52.220;9.884;2024-03-23T15:08:52;0.43;;;0.40;;
16689;SDS011;8458;52.220;9.884;2024-03-23T15:11:19;0.40;;;0.30;;
16689;SDS011;8458;52.220;9.884;2024-03-23T15:13:46;0.50;;;0.30;;
16689;SDS011;8458;52.220;9.884;2024-03-23T15:16:16;0.97;;;0.30;;
16689;SDS011;8458;52.220;9.884;2024-03-23T15:18:46;1.40;;;0.60;;
16689;SDS011;8458;52.220;9.884;2024-03-23T15:21:12;1.63;;;0.60;;
16689;SDS011;8458;52.220;9.884;2024-03-23T15:23:44;4.33;;;0.77;;
16689;SDS011;8458;52.220;9.884;2024-03-23T15:26:10;1.13;;;0.70;;
16689;SDS011;8458;52.220;9.884;2024-03-23T15:28:36;0.87;;;0.47;;
16689;SDS011;8458;52.220;9.884;2024-03-23T15:31:07;0.73;;;0.60;;
16689;SDS011;8458;52.220;9.884;2024-03-23T15:33:34;0.80;;;0.40;;
16689;SDS011;8458;52.220;9.884;2024-03-23T15:36:02;1.03;;;0.60;;
16689;SDS011;8458;52.220;9.884;2024-03-23T15:38:30;0.63;;;0.40;;
16689;SDS011;8458;52.220;9.884;2024-03-23T15:40:57;1.53;;;0.60;;
16689;SDS011;8458;52.220;9.884;2024-03-23T15:43:23;2.53;;;0.60;;
16689;SDS011;8458;52.220;9.884;2024-03-23T15:45:55;1.37;;;0.70;;
16689;SDS011;8458;52.220;9.884;2024-03-23T15:48:22;0.87;;;0.60;;
16689;SDS011;8458;52.220;9.884;2024-03-23T15:50:51;1.27;;;0.60;;
16689;SDS011;8458;52.220;9.884;2024-03-23T15:53:20;1.30;;;0.60;;
16689;SDS011;8458;52.220;9.884;2024-03-23T15:55:52;1.13;;;0.50;;
16689;SDS011;8458;52.220;9.884;2024-03-23T15:58:19;1.00;;;0.90;;
16689;SDS011;8458;52.220;9.884;2024-03-23T16:00:45;1.60;;;0.80;;